Time;durP1;ratioP1;P1;durP2;ratioP2;P2;SDS_P1;SDS_P2;PMS_P1;PMS_P2;Temp;Humidity;BMP_temperature;BMP_pressure;BME280_temperature;BME280_humidity;BME280_pressure;Samples;Min_cycle;Max_cycle;Signal;HPM_P1;HPM_P2
2021/12/19 00:10:35;;;;;;;;;;;;;;;;;;5150529;27;45568;-68
2021/12/19 00:13:01;;;;;;;;;;;;;;;;;;5150438;27;44676;-68
2021/12/19 00:15:28;;;;;;;;;;;;;;;;;;5150913;27;43583;-68
2021/12/19 00:17:54;;;;;;;;;;;;;;;;;;5150937;27;45476;-69
2021/12/19 00:20:20;;;;;;;;;;;;;;;;;;5150972;27;46076;-68
2021/12/19 00:23:06;;;;;;;;;;;;;;;;;;5152288;27;19923;-68
2021/12/19 00:25:33;;;;;;;;;;;;;;;;;;5150611;27;44689;-68
2021/12/19 00:27:59;;;;;;;;;;;;;;;;;;5150593;27;44528;-68
2021/12/19 00:30:25;;;;;;;;;;;;;;;;;;5151353;27;44394;-68
2021/12/19 00:32:51;;;;;;;;;;;;;;;;;;5149957;27;44762;-68
2021/12/19 00:35:18;;;;;;;;;;;;;;;;;;5151520;27;45252;-68
2021/12/19 00:37:45;;;;;;;;;;;;;;;;;;5150560;27;45626;-68
2021/12/19 00:40:11;;;;;;;;;;;;;;;;;;5150953;27;43038;-68
2021/12/19 00:42:37;;;;;;;;;;;;;;;;;;5151141;27;44323;-68
2021/12/19 00:45:12;;;;;;;;;;;;;;;;;;5150007;27;46213;-68
2021/12/19 00:47:38;;;;;;;;;;;;;;;;;;5150292;27;43548;-68
2021/12/19 00:50:05;;;;;;;;;;;;;;;;;;5149724;27;45502;-68
2021/12/19 00:52:40;;;;;;;;;;;;;;;;;;5149384;27;45441;-68
2021/12/19 00:55:06;;;;;;;;;;;;;;;;;;5150291;27;43727;-68
2021/12/19 00:57:32;;;;;;;;;;;;;;;;;;5150824;27;44633;-68
2021/12/19 00:59:59;;;;;;;;;;;;;;;;;;5150585;27;44183;-68
2021/12/19 01:02:25;;;;;;;;;;;;;;;;;;5150141;27;43726;-68
2021/12/19 01:04:52;;;;;;;;;;;;;;;;;;5150759;27;45758;-69
2021/12/19 01:07:18;;;;;;;;;;;;;;;;;;5150579;27;44859;-68
2021/12/19 01:09:44;;;;;;;;;;;;;;;;;;5150084;27;45798;-68
2021/12/19 01:12:10;;;;;;;;;;;;;;;;;;5149989;27;45855;-68
2021/12/19 01:14:37;;;;;;;;;;;;;;;;;;5148936;27;42223;-68
2021/12/19 01:17:03;;;;;;;;;;;;;;;;;;5150706;27;45388;-68
2021/12/19 01:19:29;;;;;;;;;;;;;;;;;;5150509;27;45324;-68
2021/12/19 01:21:55;;;;;;;;;;;;;;;;;;5150183;27;43705;-68
2021/12/19 01:24:21;;;;;;;;;;;;;;;;;;5149963;27;45471;-68
2021/12/19 01:26:48;;;;;;;;;;;;;;;;;;5149946;27;46133;-68
2021/12/19 01:29:14;;;;;;;;;;;;;;;;;;5150211;27;43217;-68
2021/12/19 01:31:41;;;;;;;;;;;;;;;;;;5150013;27;44657;-68
2021/12/19 01:34:07;;;;;;;;;;;;;;;;;;5154145;27;45000;-68
2021/12/19 01:36:33;;;;;;;;;;;;;;;;;;5153637;27;45483;-69
2021/12/19 01:38:59;;;;;;;;;;;;;;;;;;5153355;27;44660;-69
2021/12/19 01:41:25;;;;;;;;;;;;;;;;;;5153434;27;45722;-69
2021/12/19 01:43:52;;;;;;;;;;;;;;;;;;5153646;27;45380;-69
2021/12/19 01:46:18;;;;;;;;;;;;;;;;;;5153327;27;45781;-69
2021/12/19 01:48:44;;;;;;;;;;;;;;;;;;5153725;27;44850;-68
2021/12/19 01:51:10;;;;;;;;;;;;;;;;;;5153349;27;45003;-69
2021/12/19 01:53:37;;;;;;;;;;;;;;;;;;5152699;27;43803;-69
2021/12/19 01:56:05;;;;;;;;;;;;;;;;;;5152148;27;45374;-69
2021/12/19 01:58:31;;;;;;;;;;;;;;;;;;5153277;27;44610;-68
2021/12/19 02:00:58;;;;;;;;;;;;;;;;;;5154294;27;43535;-69
2021/12/19 02:03:24;;;;;;;;;;;;;;;;;;5153267;27;46455;-69
2021/12/19 02:05:50;;;;;;;;;;;;;;;;;;5152855;27;45030;-69
2021/12/19 02:08:17;;;;;;;;;;;;;;;;;;5153162;27;43721;-69
2021/12/19 02:10:43;;;;;;;;;;;;;;;;;;5153275;27;44486;-69
2021/12/19 02:13:10;;;;;;;;;;;;;;;;;;5153083;27;44771;-69
2021/12/19 02:15:36;;;;;;;;;;;;;;;;;;5152998;27;46232;-69
2021/12/19 02:18:02;;;;;;;;;;;;;;;;;;5153378;27;45808;-69
2021/12/19 02:20:28;;;;;;;;;;;;;;;;;;5153478;27;44412;-69
2021/12/19 02:22:55;;;;;;;;;;;;;;;;;;5152950;27;44725;-69
2021/12/19 02:25:21;;;;;;;;;;;;;;;;;;5152564;27;45758;-69
2021/12/19 02:27:47;;;;;;;;;;;;;;;;;;5152708;27;44803;-69
2021/12/19 02:30:13;;;;;;;;;;;;;;;;;;5153626;27;45343;-69
2021/12/19 02:32:40;;;;;;;;;;;;;;;;;;5152699;27;43547;-69
2021/12/19 02:35:09;;;;;;;;;;;;;;;;;;5153739;27;44749;-69
2021/12/19 02:40:27;;;;;;;;;;;;;;;;;;5153004;27;44101;-69
2021/12/19 02:48:23;;;;;;;;;;;;;;;;;;5152044;27;44906;-70
2021/12/19 02:50:51;;;;;;;;;;;;;;;;;;5151953;27;45711;-69
2021/12/19 02:53:22;;;;;;;;;;;;;;;;;;5152112;27;44012;-69
2021/12/19 02:55:48;;;;;;;;;;;;;;;;;;5151839;27;45624;-69
2021/12/19 02:58:14;;;;;;;;;;;;;;;;;;5152790;27;44657;-69
2021/12/19 03:00:41;;;;;;;;;;;;;;;;;;5151793;27;43788;-69
2021/12/19 03:03:07;;;;;;;;;;;;;;;;;;5152344;27;44733;-69
2021/12/19 03:05:33;;;;;;;;;;;;;;;;;;5151430;27;46528;-68
2021/12/19 03:08:02;;;;;;;;;;;;;;;;;;5151508;27;44716;-69
2021/12/19 03:13:08;;;;;;;;;;;;;;;;;;5151021;27;44655;-70
2021/12/19 03:18:19;;;;;;;;;;;;;;;;;;5150311;27;45851;-69
2021/12/19 03:20:45;;;;;;;;;;;;;;;;;;5150416;27;45913;-69
2021/12/19 03:23:11;;;;;;;;;;;;;;;;;;5150957;27;45462;-69
2021/12/19 03:25:38;;;;;;;;;;;;;;;;;;5151554;27;44769;-69
2021/12/19 03:28:04;;;;;;;;;;;;;;;;;;5150171;27;44720;-69
2021/12/19 03:30:30;;;;;;;;;;;;;;;;;;5151042;27;45544;-69
2021/12/19 03:32:57;;;;;;;;;;;;;;;;;;5150365;27;45888;-69
2021/12/19 03:35:24;;;;;;;;;;;;;;;;;;5151064;27;43626;-69
2021/12/19 03:37:51;;;;;;;;;;;;;;;;;;5151157;27;43079;-69
2021/12/19 03:40:23;;;;;;;;;;;;;;;;;;5151439;27;45215;-69
2021/12/19 03:42:49;;;;;;;;;;;;;;;;;;5150269;27;46432;-69
2021/12/19 03:45:15;;;;;;;;;;;;;;;;;;5150181;27;45687;-69
2021/12/19 03:47:42;;;;;;;;;;;;;;;;;;5150041;27;42295;-69
2021/12/19 03:50:08;;;;;;;;;;;;;;;;;;5150441;27;44629;-69
2021/12/19 03:52:34;;;;;;;;;;;;;;;;;;5150301;27;45975;-69
2021/12/19 03:55:00;;;;;;;;;;;;;;;;;;5150093;27;44948;-69
2021/12/19 03:57:27;;;;;;;;;;;;;;;;;;5149134;27;45687;-69
2021/12/19 03:59:53;;;;;;;;;;;;;;;;;;5151039;27;34581;-69
2021/12/19 04:02:25;;;;;;;;;;;;;;;;;;5150418;27;45330;-69
2021/12/19 04:04:52;;;;;;;;;;;;;;;;;;5150191;27;43678;-69
2021/12/19 04:07:18;;;;;;;;;;;;;;;;;;5150207;27;45122;-69
2021/12/19 04:09:44;;;;;;;;;;;;;;;;;;5150007;27;45859;-69
2021/12/19 04:12:10;;;;;;;;;;;;;;;;;;5150357;27;46356;-69
2021/12/19 04:14:37;;;;;;;;;;;;;;;;;;5150281;27;43589;-69
2021/12/19 04:17:03;;;;;;;;;;;;;;;;;;5149875;27;44359;-69
2021/12/19 04:19:29;;;;;;;;;;;;;;;;;;5150418;27;44583;-69
2021/12/19 04:21:56;;;;;;;;;;;;;;;;;;5149473;27;44394;-69
2021/12/19 04:24:22;;;;;;;;;;;;;;;;;;5150135;27;45856;-69
2021/12/19 04:26:48;;;;;;;;;;;;;;;;;;5150381;27;45134;-69
2021/12/19 04:29:14;;;;;;;;;;;;;;;;;;5149901;27;45284;-69
2021/12/19 04:31:41;;;;;;;;;;;;;;;;;;5148847;27;46123;-69
2021/12/19 04:34:07;;;;;;;;;;;;;;;;;;5150156;27;44558;-69
2021/12/19 04:36:38;;;;;;;;;;;;;;;;;;5148529;27;44220;-69
2021/12/19 04:53:10;;;;;;;;;;;;;;;;;;5149487;27;45615;-69
2021/12/19 04:58:35;;;;;;;;;;;;;;;;;;5148372;27;46088;-69
2021/12/19 05:03:52;;;;;;;;;;;;;;;;;;5149333;27;44592;-69
2021/12/19 05:06:35;;;;;;;;;;;;;;;;;;5148842;27;42615;-69
2021/12/19 05:14:31;;;;;;;;;;;;;;;;;;5148714;27;45797;-69
2021/12/19 05:17:04;;;;;;;;;;;;;;;;;;5149282;27;43728;-69
2021/12/19 05:19:43;;;;;;;;;;;;;;;;;;5149386;27;45332;-69
2021/12/19 05:22:10;;;;;;;;;;;;;;;;;;5148753;27;45801;-69
2021/12/19 05:27:03;;;;;;;;;;;;;;;;;;5149109;27;45476;-69
2021/12/19 05:29:29;;;;;;;;;;;;;;;;;;5149461;27;44655;-69
2021/12/19 05:31:55;;;;;;;;;;;;;;;;;;5148614;27;43466;-69
2021/12/19 05:34:21;;;;;;;;;;;;;;;;;;5148988;27;45769;-69
2021/12/19 05:47:31;;;;;;;;;;;;;;;;;;5148547;27;44747;-69
2021/12/19 05:49:57;;;;;;;;;;;;;;;;;;5147961;27;42925;-69
2021/12/19 05:52:26;;;;;;;;;;;;;;;;;;5149209;27;45809;-69
2021/12/19 05:54:52;;;;;;;;;;;;;;;;;;5148231;27;44145;-69
2021/12/19 05:57:20;;;;;;;;;;;;;;;;;;5148886;27;45002;-69
2021/12/19 05:59:46;;;;;;;;;;;;;;;;;;5148378;27;44480;-69
2021/12/19 06:02:12;;;;;;;;;;;;;;;;;;5148951;27;45728;-68
2021/12/19 06:04:38;;;;;;;;;;;;;;;;;;5148201;27;45258;-69
2021/12/19 06:07:05;;;;;;;;;;;;;;;;;;5148490;27;45425;-68
2021/12/19 06:09:31;;;;;;;;;;;;;;;;;;5148246;27;45815;-69
2021/12/19 06:11:57;;;;;;;;;;;;;;;;;;5149090;27;44658;-68
2021/12/19 06:14:25;;;;;;;;;;;;;;;;;;5147991;27;45684;-69
2021/12/19 06:16:51;;;;;;;;;;;;;;;;;;5148220;27;43612;-69
2021/12/19 06:19:18;;;;;;;;;;;;;;;;;;5151244;27;45440;-69
2021/12/19 06:21:44;;;;;;;;;;;;;;;;;;5151929;27;45780;-69
2021/12/19 06:24:10;;;;;;;;;;;;;;;;;;5150430;27;44784;-69
2021/12/19 06:26:37;;;;;;;;;;;;;;;;;;5151993;27;45337;-69
2021/12/19 06:29:03;;;;;;;;;;;;;;;;;;5152288;27;45362;-69
2021/12/19 06:31:29;;;;;;;;;;;;;;;;;;5151749;27;44841;-69
2021/12/19 06:33:55;;;;;;;;;;;;;;;;;;5151973;27;45549;-69
2021/12/19 06:36:22;;;;;;;;;;;;;;;;;;5151363;27;43624;-68
2021/12/19 06:38:48;;;;;;;;;;;;;;;;;;5150921;27;45169;-69
2021/12/19 06:41:14;;;;;;;;;;;;;;;;;;5150867;27;44621;-69
2021/12/19 06:43:41;;;;;;;;;;;;;;;;;;5151505;27;43735;-69
2021/12/19 06:46:08;;;;;;;;;;;;;;;;;;5151404;27;43879;-68
2021/12/19 06:48:34;;;;;;;;;;;;;;;;;;5151859;27;44500;-69
2021/12/19 06:51:00;;;;;;;;;;;;;;;;;;5151267;27;43595;-69
2021/12/19 06:53:26;;;;;;;;;;;;;;;;;;5151044;27;44437;-68
2021/12/19 06:55:53;;;;;;;;;;;;;;;;;;5152065;27;45702;-69
2021/12/19 06:58:19;;;;;;;;;;;;;;;;;;5152156;27;45495;-69
2021/12/19 07:00:45;;;;;;;;;;;;;;;;;;5151606;27;45810;-69
2021/12/19 07:03:13;;;;;;;;;;;;;;;;;;5149953;27;43843;-69
2021/12/19 07:05:40;;;;;;;;;;;;;;;;;;5151477;27;44358;-69
2021/12/19 07:08:06;;;;;;;;;;;;;;;;;;5151123;27;44663;-69
2021/12/19 07:10:32;;;;;;;;;;;;;;;;;;5151010;27;41490;-69
2021/12/19 07:12:59;;;;;;;;;;;;;;;;;;5151466;27;44374;-69
2021/12/19 07:15:25;;;;;;;;;;;;;;;;;;5151124;27;44564;-69
2021/12/19 07:17:51;;;;;;;;;;;;;;;;;;5151395;27;44812;-69
2021/12/19 07:20:17;;;;;;;;;;;;;;;;;;5150994;27;44651;-68
2021/12/19 07:22:44;;;;;;;;;;;;;;;;;;5150940;27;42173;-69
2021/12/19 07:25:10;;;;;;;;;;;;;;;;;;5150761;27;44267;-69
2021/12/19 07:27:36;;;;;;;;;;;;;;;;;;5149946;27;45890;-68
2021/12/19 07:30:02;;;;;;;;;;;;;;;;;;5149727;27;44323;-69
2021/12/19 07:32:30;;;;;;;;;;;;;;;;;;5151698;27;43146;-69
2021/12/19 07:35:16;;;;;;;;;;;;;;;;;;5151723;27;19927;-69
2021/12/19 07:37:45;;;;;;;;;;;;;;;;;;5150637;27;43904;-68
2021/12/19 07:40:16;;;;;;;;;;;;;;;;;;5151611;27;44390;-68
2021/12/19 07:42:43;;;;;;;;;;;;;;;;;;5151152;27;42325;-69
2021/12/19 07:45:11;;;;;;;;;;;;;;;;;;5151532;27;44311;-68
2021/12/19 07:47:37;;;;;;;;;;;;;;;;;;5150546;27;44599;-69
2021/12/19 07:50:04;;;;;;;;;;;;;;;;;;5149906;27;43735;-69
2021/12/19 07:52:30;;;;;;;;;;;;;;;;;;5149672;27;45571;-68
2021/12/19 07:54:56;;;;;;;;;;;;;;;;;;5149917;27;44599;-69
2021/12/19 07:57:22;;;;;;;;;;;;;;;;;;5150526;27;44071;-69
2021/12/19 07:59:49;;;;;;;;;;;;;;;;;;5150517;27;45497;-69
2021/12/19 08:02:15;;;;;;;;;;;;;;;;;;5150549;27;44544;-69
2021/12/19 08:04:41;;;;;;;;;;;;;;;;;;5150292;27;42998;-69
2021/12/19 08:07:11;;;;;;;;;;;;;;;;;;5150759;27;45583;-69
2021/12/19 08:09:41;;;;;;;;;;;;;;;;;;5150456;27;43622;-69
2021/12/19 08:12:07;;;;;;;;;;;;;;;;;;5150208;27;45467;-70
2021/12/19 08:14:33;;;;;;;;;;;;;;;;;;5148125;27;45803;-72
2021/12/19 08:16:59;;;;;;;;;;;;;;;;;;5149206;27;45177;-71
2021/12/19 08:19:26;;;;;;;;;;;;;;;;;;5150014;27;45485;-71
2021/12/19 08:21:53;;;;;;;;;;;;;;;;;;5150506;27;45332;-70
2021/12/19 08:24:19;;;;;;;;;;;;;;;;;;5150243;27;45807;-70
2021/12/19 08:26:46;;;;;;;;;;;;;;;;;;5149715;27;44655;-69
2021/12/19 08:29:12;;;;;;;;;;;;;;;;;;5149918;27;42395;-70
2021/12/19 08:31:38;;;;;;;;;;;;;;;;;;5149438;27;44239;-69
2021/12/19 08:34:05;;;;;;;;;;;;;;;;;;5150037;27;44836;-70
2021/12/19 08:36:31;;;;;;;;;;;;;;;;;;5149397;27;43214;-71
2021/12/19 08:38:57;;;;;;;;;;;;;;;;;;5149768;27;44390;-70
2021/12/19 08:41:24;;;;;;;;;;;;;;;;;;5149309;27;45214;-70
2021/12/19 08:43:50;;;;;;;;;;;;;;;;;;5149451;27;46260;-70
2021/12/19 08:46:16;;;;;;;;;;;;;;;;;;5149664;27;45817;-70
2021/12/19 08:48:42;;;;;;;;;;;;;;;;;;5149195;27;44838;-70
2021/12/19 08:51:09;;;;;;;;;;;;;;;;;;5149200;27;45499;-70
2021/12/19 08:53:35;;;;;;;;;;;;;;;;;;5148848;27;43659;-70
2021/12/19 08:56:01;;;;;;;;;;;;;;;;;;5149775;27;45088;-70
2021/12/19 08:58:29;;;;;;;;;;;;;;;;;;5149842;27;43754;-71
2021/12/19 09:00:58;;;;;;;;;;;;;;;;;;5149010;27;45805;-70
2021/12/19 09:03:24;;;;;;;;;;;;;;;;;;5149548;27;45091;-68
2021/12/19 09:05:50;;;;;;;;;;;;;;;;;;5148743;27;46664;-70
2021/12/19 09:08:17;;;;;;;;;;;;;;;;;;5149400;27;44732;-70
2021/12/19 09:10:43;;;;;;;;;;;;;;;;;;5149360;27;45322;-70
2021/12/19 09:13:09;;;;;;;;;;;;;;;;;;5148917;27;46086;-70
2021/12/19 09:15:35;;;;;;;;;;;;;;;;;;5148821;27;44937;-70
2021/12/19 09:18:02;;;;;;;;;;;;;;;;;;5149438;27;45500;-70
2021/12/19 09:20:28;;;;;;;;;;;;;;;;;;5148849;27;44671;-69
2021/12/19 09:22:54;;;;;;;;;;;;;;;;;;5149795;27;44832;-69
2021/12/19 09:25:21;;;;;;;;;;;;;;;;;;5149014;27;45777;-70
2021/12/19 09:27:47;;;;;;;;;;;;;;;;;;5149242;27;43426;-69
2021/12/19 09:30:13;;;;;;;;;;;;;;;;;;5148714;27;45558;-69
2021/12/19 09:32:40;;;;;;;;;;;;;;;;;;5148531;27;46252;-69
2021/12/19 09:35:06;;;;;;;;;;;;;;;;;;5149393;27;44284;-69
2021/12/19 09:37:35;;;;;;;;;;;;;;;;;;5148990;27;44749;-70
2021/12/19 09:40:03;;;;;;;;;;;;;;;;;;5148784;27;44334;-70
2021/12/19 09:42:34;;;;;;;;;;;;;;;;;;5148825;27;44842;-70
2021/12/19 09:45:00;;;;;;;;;;;;;;;;;;5148897;27;43072;-70
2021/12/19 09:47:26;;;;;;;;;;;;;;;;;;5148700;27;46638;-70
2021/12/19 09:49:57;;;;;;;;;;;;;;;;;;5148947;27;42466;-70
2021/12/19 09:52:23;;;;;;;;;;;;;;;;;;5149203;27;42590;-70
2021/12/19 09:54:49;;;;;;;;;;;;;;;;;;5151931;27;42587;-70
2021/12/19 09:57:16;;;;;;;;;;;;;;;;;;5152176;27;45469;-70
2021/12/19 09:59:43;;;;;;;;;;;;;;;;;;5152066;27;45651;-70
2021/12/19 10:02:10;;;;;;;;;;;;;;;;;;5152304;27;43648;-70
2021/12/19 10:04:36;;;;;;;;;;;;;;;;;;5151750;27;44535;-70
2021/12/19 10:07:03;;;;;;;;;;;;;;;;;;5152556;27;44715;-70
2021/12/19 10:09:29;;;;;;;;;;;;;;;;;;5152207;27;44983;-70
2021/12/19 10:12:10;;;;;;;;;;;;;;;;;;5152670;27;46612;-70
2021/12/19 10:14:36;;;;;;;;;;;;;;;;;;5151710;27;43931;-70
2021/12/19 10:17:02;;;;;;;;;;;;;;;;;;5151766;27;45372;-70
2021/12/19 10:19:28;;;;;;;;;;;;;;;;;;5151822;27;45836;-69
2021/12/19 10:21:55;;;;;;;;;;;;;;;;;;5152000;27;46706;-69
2021/12/19 10:24:21;;;;;;;;;;;;;;;;;;5152020;27;44603;-70
2021/12/19 10:26:49;;;;;;;;;;;;;;;;;;5151558;27;45789;-69
2021/12/19 10:29:15;;;;;;;;;;;;;;;;;;5151884;27;44095;-69
2021/12/19 10:31:42;;;;;;;;;;;;;;;;;;5151715;27;44437;-69
2021/12/19 10:34:08;;;;;;;;;;;;;;;;;;5152588;27;43731;-69
2021/12/19 10:36:34;;;;;;;;;;;;;;;;;;5152255;27;43891;-69
2021/12/19 10:39:19;;;;;;;;;;;;;;;;;;5151161;27;44685;-69
2021/12/19 10:41:45;;;;;;;;;;;;;;;;;;5151593;27;43320;-69
2021/12/19 10:45:29;;;;;;;;;;;;;;;;;;5151280;27;46729;-71
2021/12/19 10:46:58;;;;;;;;;;;;;;;;;;5151468;27;45739;-69
2021/12/19 10:49:24;;;;;;;;;;;;;;;;;;5151850;27;43238;-69
2021/12/19 10:51:51;;;;;;;;;;;;;;;;;;5151830;27;45014;-68
2021/12/19 10:54:17;;;;;;;;;;;;;;;;;;5151656;27;44509;-69
2021/12/19 10:56:43;;;;;;;;;;;;;;;;;;5150953;27;44214;-69
2021/12/19 10:59:09;;;;;;;;;;;;;;;;;;5151763;27;45858;-69
2021/12/19 11:01:36;;;;;;;;;;;;;;;;;;5161588;27;44910;-69
2021/12/19 11:04:02;;;;;;;;;;;;;;;;;;5170011;27;44440;-69
2021/12/19 11:06:28;;;;;;;;;;;;;;;;;;5170093;27;44904;-69
2021/12/19 11:08:55;;;;;;;;;;;;;;;;;;5171453;27;44158;-69
2021/12/19 11:11:21;;;;;;;;;;;;;;;;;;5172602;27;44458;-69
2021/12/19 11:13:48;;;;;;;;;;;;;;;;;;5171726;27;44674;-69
2021/12/19 11:16:14;;;;;;;;;;;;;;;;;;5172626;27;42023;-69
2021/12/19 11:18:41;;;;;;;;;;;;;;;;;;5172010;27;46793;-69
2021/12/19 11:21:07;;;;;;;;;;;;;;;;;;5171571;27;43882;-68
2021/12/19 11:23:33;;;;;;;;;;;;;;;;;;5172246;27;44386;-69
2021/12/19 11:25:59;;;;;;;;;;;;;;;;;;5171423;27;44659;-69
2021/12/19 11:28:27;;;;;;;;;;;;;;;;;;5171568;27;44913;-69
2021/12/19 11:30:53;;;;;;;;;;;;;;;;;;5172319;27;45411;-69
2021/12/19 11:33:20;;;;;;;;;;;;;;;;;;5171010;27;45023;-69
2021/12/19 11:35:46;;;;;;;;;;;;;;;;;;5171198;27;45059;-69
2021/12/19 11:38:13;;;;;;;;;;;;;;;;;;5171379;27;44401;-69
2021/12/19 11:40:42;;;;;;;;;;;;;;;;;;5170926;27;41418;-69
2021/12/19 11:43:08;;;;;;;;;;;;;;;;;;5172201;27;45347;-71
2021/12/19 11:45:43;;;;;;;;;;;;;;;;;;5171828;27;45852;-69
2021/12/19 11:48:14;;;;;;;;;;;;;;;;;;5170562;27;43845;-69
2021/12/19 11:50:40;;;;;;;;;;;;;;;;;;5170936;27;44720;-70
2021/12/19 11:53:06;;;;;;;;;;;;;;;;;;5170212;27;44849;-70
2021/12/19 11:55:32;;;;;;;;;;;;;;;;;;5171066;27;43718;-69
2021/12/19 11:57:59;;;;;;;;;;;;;;;;;;5171218;27;45760;-69
2021/12/19 12:00:25;;;;;;;;;;;;;;;;;;5171451;27;44699;-69
2021/12/19 12:02:51;;;;;;;;;;;;;;;;;;5171425;27;44337;-69
2021/12/19 12:05:17;;;;;;;;;;;;;;;;;;5171349;27;45678;-71
2021/12/19 12:07:44;;;;;;;;;;;;;;;;;;5171299;27;43825;-70
2021/12/19 12:10:13;;;;;;;;;;;;;;;;;;5171540;27;45121;-70
2021/12/19 12:12:40;;;;;;;;;;;;;;;;;;5171300;27;44582;-70
2021/12/19 12:15:07;;;;;;;;;;;;;;;;;;5170864;27;43714;-69
2021/12/19 12:17:37;;;;;;;;;;;;;;;;;;5170405;27;45510;-70
2021/12/19 12:20:03;;;;;;;;;;;;;;;;;;5171089;27;46095;-70
2021/12/19 12:22:47;;;;;;;;;;;;;;;;;;5170636;27;44884;-71
2021/12/19 12:25:15;;;;;;;;;;;;;;;;;;5171026;27;45791;-70
2021/12/19 12:27:41;;;;;;;;;;;;;;;;;;5170276;27;44989;-70
2021/12/19 12:30:07;;;;;;;;;;;;;;;;;;5170779;27;44227;-70
2021/12/19 12:32:34;;;;;;;;;;;;;;;;;;5171383;27;43499;-70
2021/12/19 12:35:00;;;;;;;;;;;;;;;;;;5170245;27;45256;-70
2021/12/19 12:37:27;;;;;;;;;;;;;;;;;;5170685;27;44465;-70
2021/12/19 12:39:53;;;;;;;;;;;;;;;;;;5170617;27;44568;-69
2021/12/19 12:42:22;;;;;;;;;;;;;;;;;;5169364;27;44716;-70
2021/12/19 12:44:48;;;;;;;;;;;;;;;;;;5170540;27;44554;-69
2021/12/19 12:47:15;;;;;;;;;;;;;;;;;;5169666;27;43708;-71
2021/12/19 12:49:41;;;;;;;;;;;;;;;;;;5169894;27;44186;-71
2021/12/19 12:52:07;;;;;;;;;;;;;;;;;;5170911;27;43152;-71
2021/12/19 12:54:36;;;;;;;;;;;;;;;;;;5170674;27;44601;-70
2021/12/19 12:57:03;;;;;;;;;;;;;;;;;;5171564;27;20009;-70
2021/12/19 12:59:29;;;;;;;;;;;;;;;;;;5170267;27;44497;-69
2021/12/19 13:02:06;;;;;;;;;;;;;;;;;;5170509;27;44401;-70
2021/12/19 13:04:33;;;;;;;;;;;;;;;;;;5171251;27;45697;-70
2021/12/19 13:06:59;;;;;;;;;;;;;;;;;;5170625;27;44812;-70
2021/12/19 13:09:25;;;;;;;;;;;;;;;;;;5170494;27;44818;-70
2021/12/19 13:11:51;;;;;;;;;;;;;;;;;;5169589;27;45789;-70
2021/12/19 13:14:18;;;;;;;;;;;;;;;;;;5170356;27;44911;-69
2021/12/19 13:16:44;;;;;;;;;;;;;;;;;;5169988;27;45593;-70
2021/12/19 13:19:10;;;;;;;;;;;;;;;;;;5170350;27;45803;-70
2021/12/19 13:21:37;;;;;;;;;;;;;;;;;;5169900;27;43696;-70
2021/12/19 13:24:03;;;;;;;;;;;;;;;;;;5169979;27;44360;-70
2021/12/19 13:26:29;;;;;;;;;;;;;;;;;;5168929;27;45868;-69
2021/12/19 13:28:55;;;;;;;;;;;;;;;;;;5168814;27;44368;-70
2021/12/19 13:31:22;;;;;;;;;;;;;;;;;;5169406;27;46021;-70
2021/12/19 13:33:48;;;;;;;;;;;;;;;;;;5170405;27;44840;-69
2021/12/19 13:36:14;;;;;;;;;;;;;;;;;;5169273;27;46899;-69
2021/12/19 13:38:41;;;;;;;;;;;;;;;;;;5170268;27;44768;-70
2021/12/19 13:41:07;;;;;;;;;;;;;;;;;;5169421;27;43702;-70
2021/12/19 13:43:33;;;;;;;;;;;;;;;;;;5169396;27;44697;-69
2021/12/19 13:45:59;;;;;;;;;;;;;;;;;;5168790;27;44733;-69
2021/12/19 13:48:27;;;;;;;;;;;;;;;;;;5170006;27;43740;-69
2021/12/19 13:50:53;;;;;;;;;;;;;;;;;;5169644;27;45856;-69
2021/12/19 13:53:19;;;;;;;;;;;;;;;;;;5169727;27;43602;-69
2021/12/19 13:55:45;;;;;;;;;;;;;;;;;;5169479;27;43162;-69
2021/12/19 13:58:12;;;;;;;;;;;;;;;;;;5169348;27;45280;-69
2021/12/19 14:00:38;;;;;;;;;;;;;;;;;;5169034;27;42445;-69
2021/12/19 14:03:04;;;;;;;;;;;;;;;;;;5169789;27;44375;-70
2021/12/19 14:05:31;;;;;;;;;;;;;;;;;;5169825;27;45236;-69
2021/12/19 14:07:57;;;;;;;;;;;;;;;;;;5169678;27;44830;-69
2021/12/19 14:10:23;;;;;;;;;;;;;;;;;;5169958;27;45811;-69
2021/12/19 14:13:05;;;;;;;;;;;;;;;;;;5169320;27;43901;-70
2021/12/19 14:15:32;;;;;;;;;;;;;;;;;;5169231;27;44376;-70
2021/12/19 14:17:58;;;;;;;;;;;;;;;;;;5169381;27;44800;-70
2021/12/19 14:20:24;;;;;;;;;;;;;;;;;;5169532;27;42048;-70
2021/12/19 14:22:50;;;;;;;;;;;;;;;;;;5168215;27;44731;-70
2021/12/19 14:25:17;;;;;;;;;;;;;;;;;;5168696;27;46305;-70
2021/12/19 14:27:43;;;;;;;;;;;;;;;;;;5169929;27;45772;-69
2021/12/19 14:30:09;;;;;;;;;;;;;;;;;;5169013;27;44261;-71
2021/12/19 14:32:36;;;;;;;;;;;;;;;;;;5168950;27;34550;-69
2021/12/19 14:35:03;;;;;;;;;;;;;;;;;;5168647;27;45500;-69
2021/12/19 14:37:29;;;;;;;;;;;;;;;;;;5169480;27;46007;-69
2021/12/19 14:40:00;;;;;;;;;;;;;;;;;;5171366;27;45098;-70
2021/12/19 14:42:26;;;;;;;;;;;;;;;;;;5172705;27;45486;-69
2021/12/19 14:44:52;;;;;;;;;;;;;;;;;;5171406;27;44537;-69
2021/12/19 14:47:18;;;;;;;;;;;;;;;;;;5173068;27;43527;-69
2021/12/19 14:49:46;;;;;;;;;;;;;;;;;;5172058;27;46624;-69
2021/12/19 14:52:13;;;;;;;;;;;;;;;;;;5173017;27;46010;-69
2021/12/19 14:54:39;;;;;;;;;;;;;;;;;;5172402;27;44484;-69
2021/12/19 14:57:05;;;;;;;;;;;;;;;;;;5171616;27;45802;-69
2021/12/19 14:59:31;;;;;;;;;;;;;;;;;;5172458;27;43794;-69
2021/12/19 15:01:58;;;;;;;;;;;;;;;;;;5172364;27;44258;-69
2021/12/19 15:04:37;;;;;;;;;;;;;;;;;;5172208;27;46089;-69
2021/12/19 15:07:04;;;;;;;;;;;;;;;;;;5172824;27;44860;-69
2021/12/19 15:09:31;;;;;;;;;;;;;;;;;;5172118;27;44715;-69
2021/12/19 15:11:57;;;;;;;;;;;;;;;;;;5172297;27;45629;-69
2021/12/19 15:14:23;;;;;;;;;;;;;;;;;;5172213;27;42510;-69
2021/12/19 15:16:49;;;;;;;;;;;;;;;;;;5171525;27;43518;-69
2021/12/19 15:19:16;;;;;;;;;;;;;;;;;;5172150;27;43707;-69
2021/12/19 15:21:42;;;;;;;;;;;;;;;;;;5171042;27;44404;-69
2021/12/19 15:24:08;;;;;;;;;;;;;;;;;;5172713;27;45019;-68
2021/12/19 15:26:34;;;;;;;;;;;;;;;;;;5171788;27;43489;-68
2021/12/19 15:29:03;;;;;;;;;;;;;;;;;;5171872;27;44244;-68
2021/12/19 15:31:30;;;;;;;;;;;;;;;;;;5171451;27;44774;-70
2021/12/19 15:33:57;;;;;;;;;;;;;;;;;;5172129;27;42190;-68
2021/12/19 15:36:24;;;;;;;;;;;;;;;;;;5172096;27;45345;-68
2021/12/19 15:38:50;;;;;;;;;;;;;;;;;;5171269;27;45228;-68
2021/12/19 15:41:16;;;;;;;;;;;;;;;;;;5171359;27;44402;-68
2021/12/19 15:43:43;;;;;;;;;;;;;;;;;;5171529;27;44546;-69
2021/12/19 15:46:09;;;;;;;;;;;;;;;;;;5171282;27;44997;-69
2021/12/19 15:48:36;;;;;;;;;;;;;;;;;;5171746;27;44359;-69
2021/12/19 15:51:02;;;;;;;;;;;;;;;;;;5169745;27;43361;-69
2021/12/19 15:53:28;;;;;;;;;;;;;;;;;;5171926;27;44715;-69
2021/12/19 15:55:54;;;;;;;;;;;;;;;;;;5172025;27;45502;-69
2021/12/19 15:58:20;;;;;;;;;;;;;;;;;;5171258;27;45376;-69
2021/12/19 16:00:47;;;;;;;;;;;;;;;;;;5171172;27;44203;-69
2021/12/19 16:03:13;;;;;;;;;;;;;;;;;;5170959;27;45626;-69
2021/12/19 16:05:39;;;;;;;;;;;;;;;;;;5171233;27;45990;-69
2021/12/19 16:08:06;;;;;;;;;;;;;;;;;;5171768;27;45484;-69
2021/12/19 16:10:32;;;;;;;;;;;;;;;;;;5171084;27;45620;-69
2021/12/19 16:12:58;;;;;;;;;;;;;;;;;;5171470;27;43713;-69
2021/12/19 16:15:24;;;;;;;;;;;;;;;;;;5170979;27;44227;-68
2021/12/19 16:17:53;;;;;;;;;;;;;;;;;;5171038;27;44569;-69
2021/12/19 16:20:19;;;;;;;;;;;;;;;;;;5171559;27;43147;-69
2021/12/19 16:22:45;;;;;;;;;;;;;;;;;;5170588;27;44570;-69
2021/12/19 16:25:12;;;;;;;;;;;;;;;;;;5169663;27;44268;-69
2021/12/19 16:27:40;;;;;;;;;;;;;;;;;;5170419;27;46472;-69
2021/12/19 16:30:08;;;;;;;;;;;;;;;;;;5170178;27;45595;-69
2021/12/19 16:32:34;;;;;;;;;;;;;;;;;;5171530;27;44678;-69
2021/12/19 16:35:01;;;;;;;;;;;;;;;;;;5170963;27;44381;-69
2021/12/19 16:37:27;;;;;;;;;;;;;;;;;;5170253;27;44584;-71
2021/12/19 16:39:55;;;;;;;;;;;;;;;;;;5171075;27;43800;-69
2021/12/19 16:44:47;;;;;;;;;;;;;;;;;;5170378;27;43781;-68
2021/12/19 16:47:13;;;;;;;;;;;;;;;;;;5170269;27;44409;-68
2021/12/19 16:49:39;;;;;;;;;;;;;;;;;;5169904;27;44691;-68
2021/12/19 16:52:06;;;;;;;;;;;;;;;;;;5169631;27;43553;-69
2021/12/19 16:54:32;;;;;;;;;;;;;;;;;;5170956;27;44270;-69
2021/12/19 16:56:58;;;;;;;;;;;;;;;;;;5170150;27;45947;-69
2021/12/19 16:59:25;;;;;;;;;;;;;;;;;;5170731;27;44819;-69
2021/12/19 17:01:51;;;;;;;;;;;;;;;;;;5170092;27;44593;-69
2021/12/19 17:04:17;;;;;;;;;;;;;;;;;;5170014;27;43255;-68
2021/12/19 17:07:00;;;;;;;;;;;;;;;;;;5170329;27;44450;-69
2021/12/19 17:09:26;;;;;;;;;;;;;;;;;;5170673;27;43151;-68
2021/12/19 17:11:58;;;;;;;;;;;;;;;;;;5170308;27;44935;-69
2021/12/19 17:14:25;;;;;;;;;;;;;;;;;;5169852;27;44615;-69
2021/12/19 17:16:51;;;;;;;;;;;;;;;;;;5169177;27;43472;-69
2021/12/19 17:19:17;;;;;;;;;;;;;;;;;;5170428;27;44936;-69
2021/12/19 17:21:44;;;;;;;;;;;;;;;;;;5169998;27;43588;-70
2021/12/19 17:24:10;;;;;;;;;;;;;;;;;;5170241;27;44612;-69
2021/12/19 17:26:36;;;;;;;;;;;;;;;;;;5169692;27;44399;-69
2021/12/19 17:29:02;;;;;;;;;;;;;;;;;;5169625;27;44776;-69
2021/12/19 17:31:29;;;;;;;;;;;;;;;;;;5170139;27;43693;-69
2021/12/19 17:33:56;;;;;;;;;;;;;;;;;;5169966;27;45457;-69
2021/12/19 17:36:24;;;;;;;;;;;;;;;;;;5170271;27;45832;-69
2021/12/19 17:38:51;;;;;;;;;;;;;;;;;;5169568;27;43742;-69
2021/12/19 17:41:17;;;;;;;;;;;;;;;;;;5169236;27;46042;-69
2021/12/19 17:43:43;;;;;;;;;;;;;;;;;;5169247;27;45638;-69
2021/12/19 17:46:11;;;;;;;;;;;;;;;;;;5169805;27;44715;-69
2021/12/19 17:48:37;;;;;;;;;;;;;;;;;;5169243;27;45584;-69